Time;durP1;ratioP1;P1;durP2;ratioP2;P2;SDS_P1;SDS_P2;PMS_P1;PMS_P2;Temp;Humidity;BMP_temperature;BMP_pressure;BME280_temperature;BME280_humidity;BME280_pressure;Samples;Min_cycle;Max_cycle;Signal;HPM_P1;HPM_P2
2022/03/01 00:00:57;;;;;;;15.32;10.75;;;-0.20;99.90;;;;;;5007515;28;20502;-75
2022/03/01 00:03:24;;;;;;;13.43;10.40;;;-0.30;99.90;;;;;;5032402;28;20036;-74
2022/03/01 00:05:49;;;;;;;14.80;11.25;;;-0.30;99.90;;;;;;5023705;28;20061;-75
2022/03/01 00:08:15;;;;;;;12.55;10.25;;;-0.40;99.90;;;;;;5012965;28;20075;-74
2022/03/01 00:10:40;;;;;;;12.25;10.25;;;-0.40;99.90;;;;;;5011273;28;20562;-74
2022/03/01 00:13:07;;;;;;;14.35;10.27;;;-0.40;99.90;;;;;;5021333;28;20030;-73
2022/03/01 00:15:33;;;;;;;13.38;10.40;;;-0.50;99.90;;;;;;5014983;28;20102;-73
2022/03/01 00:17:58;;;;;;;12.18;10.40;;;-0.50;99.90;;;;;;5013790;28;20109;-74
2022/03/01 00:20:24;;;;;;;13.43;10.65;;;-0.50;99.90;;;;;;4995186;28;20077;-74
2022/03/01 00:22:49;;;;;;;13.43;10.50;;;-0.50;99.90;;;;;;4978693;28;20022;-74
2022/03/01 00:25:15;;;;;;;12.07;10.15;;;-0.50;99.90;;;;;;5014753;28;20025;-74
2022/03/01 00:27:41;;;;;;;12.25;10.02;;;-0.50;99.90;;;;;;4996742;28;20030;-73
2022/03/01 00:30:07;;;;;;;13.15;10.07;;;-0.60;99.90;;;;;;5000559;28;20048;-73
2022/03/01 00:32:33;;;;;;;15.02;11.00;;;-0.50;99.90;;;;;;5013277;28;20025;-73
2022/03/01 00:34:58;;;;;;;13.32;11.18;;;-0.60;99.90;;;;;;4990494;28;20109;-73
2022/03/01 00:37:24;;;;;;;12.63;10.55;;;-0.60;99.90;;;;;;5007864;28;20525;-72
2022/03/01 00:39:49;;;;;;;11.82;10.05;;;-0.70;99.90;;;;;;5001386;28;20125;-72
2022/03/01 00:42:15;;;;;;;13.88;10.80;;;-0.60;99.90;;;;;;5001408;28;20034;-73
2022/03/01 00:44:40;;;;;;;13.68;10.45;;;-0.60;99.90;;;;;;5007945;28;20484;-73
2022/03/01 00:47:06;;;;;;;16.55;11.02;;;-0.60;99.90;;;;;;4994998;28;20076;-73
2022/03/01 00:49:31;;;;;;;14.48;11.65;;;-0.70;99.90;;;;;;5007954;28;20521;-73
2022/03/01 00:51:57;;;;;;;11.77;10.13;;;-0.70;99.90;;;;;;5007257;28;20157;-73
2022/03/01 00:54:22;;;;;;;13.38;10.13;;;-0.70;99.90;;;;;;4983726;28;20076;-73
2022/03/01 00:56:48;;;;;;;13.20;10.35;;;-0.70;99.90;;;;;;5001115;28;20035;-74
2022/03/01 00:59:13;;;;;;;12.50;9.90;;;-0.70;99.90;;;;;;5007620;28;20027;-73
2022/03/01 01:01:39;;;;;;;12.23;10.18;;;-0.70;99.90;;;;;;5007571;28;20061;-73
2022/03/01 01:04:04;;;;;;;12.77;10.05;;;-0.70;99.90;;;;;;5013823;28;20033;-72
2022/03/01 01:06:30;;;;;;;12.65;10.13;;;-0.60;99.90;;;;;;5009387;28;20026;-72
2022/03/01 01:08:55;;;;;;;12.98;10.25;;;-0.70;99.90;;;;;;5007864;28;20771;-72
2022/03/01 01:11:21;;;;;;;14.38;10.30;;;-0.70;99.90;;;;;;4994064;28;20031;-73
2022/03/01 01:13:47;;;;;;;12.00;9.93;;;-0.70;99.90;;;;;;4992700;28;20022;-73
2022/03/01 01:16:12;;;;;;;12.15;10.32;;;-0.80;99.90;;;;;;5006308;28;20558;-74
2022/03/01 01:18:43;;;;;;;11.18;9.63;;;-0.80;99.90;;;;;;5013627;28;20028;-72
2022/03/01 01:21:12;;;;;;;12.93;9.85;;;-0.70;99.90;;;;;;5001063;28;20117;-73
2022/03/01 01:23:38;;;;;;;13.57;10.48;;;-0.70;99.90;;;;;;5007222;28;20026;-72
2022/03/01 01:26:03;;;;;;;12.75;10.15;;;-0.70;99.90;;;;;;5010827;28;20041;-73
2022/03/01 01:28:29;;;;;;;11.38;9.95;;;-0.80;99.90;;;;;;5006488;28;20392;-73
2022/03/01 01:30:54;;;;;;;11.95;9.52;;;-0.80;99.90;;;;;;5006681;28;20065;-72
2022/03/01 01:33:20;;;;;;;12.00;10.05;;;-0.80;99.90;;;;;;4993911;28;20022;-73
2022/03/01 01:35:45;;;;;;;12.20;9.90;;;-0.90;99.90;;;;;;5006787;28;20100;-72
2022/03/01 01:38:11;;;;;;;13.18;10.35;;;-0.90;99.90;;;;;;5000818;28;20100;-72
2022/03/01 01:40:36;;;;;;;12.63;10.48;;;-0.90;99.90;;;;;;4999031;28;20455;-72
2022/03/01 01:43:04;;;;;;;12.07;10.23;;;-0.90;99.90;;;;;;5000644;28;20030;-72
2022/03/01 01:45:30;;;;;;;12.20;10.40;;;-1.00;99.90;;;;;;5012702;28;20033;-72
2022/03/01 01:47:58;;;;;;;13.43;10.75;;;-1.00;99.90;;;;;;5000570;28;20022;-73
2022/03/01 01:50:24;;;;;;;14.55;10.80;;;-1.00;99.90;;;;;;5011759;28;20113;-71
2022/03/01 01:52:51;;;;;;;12.32;10.32;;;-1.00;99.90;;;;;;5009304;28;20038;-72
2022/03/01 01:55:18;;;;;;;11.48;9.80;;;-1.10;99.90;;;;;;5006698;28;20449;-73
2022/03/01 01:57:44;;;;;;;12.35;9.85;;;-1.10;99.90;;;;;;4993218;28;20038;-73
2022/03/01 02:00:13;;;;;;;12.25;10.15;;;-1.10;99.90;;;;;;5007203;28;20026;-72
2022/03/01 02:02:40;;;;;;;12.05;9.68;;;-1.10;99.90;;;;;;5012820;28;20018;-73
2022/03/01 02:05:07;;;;;;;12.07;9.80;;;-1.10;99.90;;;;;;4995227;28;20048;-74
2022/03/01 02:07:33;;;;;;;13.43;9.30;;;-1.10;99.90;;;;;;5005031;28;20545;-74
2022/03/01 02:09:58;;;;;;;11.98;9.30;;;-1.10;99.90;;;;;;5006375;28;20030;-74
2022/03/01 02:12:24;;;;;;;15.40;10.10;;;-1.20;99.90;;;;;;5000581;28;20030;-74
2022/03/01 02:14:49;;;;;;;11.80;9.88;;;-1.20;99.90;;;;;;5000092;28;20033;-74
2022/03/01 02:17:15;;;;;;;13.07;10.30;;;-1.30;99.90;;;;;;5005568;28;20026;-74
2022/03/01 02:19:51;;;;;;;14.98;11.10;;;-1.30;99.90;;;;;;4999376;28;20029;-73
2022/03/01 02:22:17;;;;;;;13.35;10.38;;;-1.30;99.90;;;;;;5003557;28;20650;-74
2022/03/01 02:24:43;;;;;;;13.35;10.73;;;-1.40;99.90;;;;;;5008484;28;20516;-73
2022/03/01 02:27:08;;;;;;;16.20;11.10;;;-1.40;99.90;;;;;;5012394;28;20113;-73
2022/03/01 02:29:34;;;;;;;15.10;10.73;;;-1.40;99.90;;;;;;4978848;28;20026;-72
2022/03/01 02:32:04;;;;;;;13.38;10.20;;;-1.40;99.90;;;;;;4984577;28;20029;-74
2022/03/01 02:34:30;;;;;;;13.02;10.00;;;-1.40;99.90;;;;;;5008952;28;20034;-72
2022/03/01 02:36:55;;;;;;;12.55;9.98;;;-1.40;99.90;;;;;;4977413;28;20026;-73
2022/03/01 02:39:21;;;;;;;16.27;12.25;;;-1.50;99.90;;;;;;4992102;28;20032;-71
2022/03/01 02:41:47;;;;;;;13.13;10.32;;;-1.40;99.90;;;;;;4994446;28;20022;-72
2022/03/01 02:44:13;;;;;;;20.42;15.32;;;-1.40;99.90;;;;;;5008848;28;20396;-72
2022/03/01 02:46:40;;;;;;;23.08;15.70;;;-1.40;99.90;;;;;;5002494;28;20073;-73
2022/03/01 02:49:07;;;;;;;25.13;17.35;;;-1.40;99.90;;;;;;4995677;28;20048;-72
2022/03/01 02:51:33;;;;;;;17.75;13.13;;;-1.50;99.90;;;;;;4997112;28;20023;-73
2022/03/01 02:53:59;;;;;;;14.75;11.93;;;-1.50;99.90;;;;;;4991050;28;20032;-73
2022/03/01 02:56:24;;;;;;;18.98;14.77;;;-1.50;99.90;;;;;;5011871;28;20026;-73
2022/03/01 02:58:50;;;;;;;15.60;12.30;;;-1.50;99.90;;;;;;4998990;28;20036;-73
2022/03/01 03:01:16;;;;;;;15.05;11.98;;;-1.50;99.90;;;;;;5001985;28;20030;-73
2022/03/01 03:03:42;;;;;;;12.82;10.85;;;-1.60;99.90;;;;;;5005446;28;20072;-73
2022/03/01 03:06:07;;;;;;;13.25;10.70;;;-1.60;99.90;;;;;;5002309;28;20034;-73
2022/03/01 03:08:33;;;;;;;13.63;10.75;;;-1.60;99.90;;;;;;4981263;28;20057;-73
2022/03/01 03:10:59;;;;;;;12.52;11.20;;;-1.60;99.90;;;;;;4994122;28;20073;-73
2022/03/01 03:13:25;;;;;;;14.45;11.00;;;-1.60;99.90;;;;;;4995618;28;20022;-73
2022/03/01 03:15:51;;;;;;;12.52;11.15;;;-1.50;99.90;;;;;;4992165;28;20033;-74
2022/03/01 03:18:17;;;;;;;13.25;10.10;;;-1.60;99.90;;;;;;5008363;28;20030;-74
2022/03/01 03:20:43;;;;;;;13.13;9.63;;;-1.60;99.90;;;;;;5001862;28;20489;-74
2022/03/01 03:23:09;;;;;;;11.55;10.27;;;-1.60;99.90;;;;;;5005338;28;20033;-73
2022/03/01 03:25:35;;;;;;;12.52;9.85;;;-1.60;99.90;;;;;;5004900;28;20033;-74
2022/03/01 03:28:00;;;;;;;11.43;9.13;;;-1.60;99.90;;;;;;4991113;28;20030;-73
2022/03/01 03:30:26;;;;;;;11.38;8.73;;;-1.60;99.90;;;;;;5001956;28;20026;-73
2022/03/01 03:32:52;;;;;;;11.23;9.07;;;-1.60;99.90;;;;;;5008432;28;20029;-73
2022/03/01 03:35:18;;;;;;;12.38;8.98;;;-1.60;99.90;;;;;;5011824;28;20026;-74
2022/03/01 03:37:44;;;;;;;10.68;8.73;;;-1.60;99.90;;;;;;4998595;28;20051;-74
2022/03/01 03:40:10;;;;;;;11.05;9.05;;;-1.60;99.90;;;;;;5003627;28;20030;-74
2022/03/01 03:42:35;;;;;;;11.38;9.20;;;-1.60;99.90;;;;;;5004638;28;20025;-73
2022/03/01 03:45:01;;;;;;;12.88;8.55;;;-1.60;99.90;;;;;;5001963;28;20061;-73
2022/03/01 03:47:27;;;;;;;11.68;8.93;;;-1.60;99.90;;;;;;4995158;28;20496;-73
2022/03/01 03:49:53;;;;;;;12.38;9.43;;;-1.60;99.90;;;;;;5011631;28;20026;-73
2022/03/01 03:52:18;;;;;;;12.18;9.25;;;-1.60;99.90;;;;;;5003217;28;20097;-74
2022/03/01 03:54:44;;;;;;;13.98;8.63;;;-1.70;99.90;;;;;;5011369;28;20131;-74
2022/03/01 03:57:10;;;;;;;12.43;9.80;;;-1.60;99.90;;;;;;5011325;28;20045;-74
2022/03/01 03:59:36;;;;;;;12.13;9.35;;;-1.70;99.90;;;;;;5020758;28;20018;-74
2022/03/01 04:02:03;;;;;;;11.88;9.23;;;-1.70;99.90;;;;;;5008741;28;20034;-74
2022/03/01 04:04:29;;;;;;;11.60;9.40;;;-1.70;99.90;;;;;;4986514;28;20026;-74
2022/03/01 04:06:55;;;;;;;11.65;9.63;;;-1.70;99.90;;;;;;5001869;28;20393;-75
2022/03/01 04:09:20;;;;;;;10.73;9.45;;;-1.70;99.90;;;;;;4988350;28;20049;-73
2022/03/01 04:11:46;;;;;;;11.77;8.82;;;-1.70;99.90;;;;;;5008183;28;20392;-72
2022/03/01 04:14:11;;;;;;;10.82;8.60;;;-1.70;99.90;;;;;;5005271;28;20380;-73
2022/03/01 04:16:38;;;;;;;13.65;9.77;;;-1.80;99.90;;;;;;5014937;28;20472;-73
2022/03/01 04:19:03;;;;;;;12.18;9.10;;;-1.80;99.90;;;;;;5014837;28;20029;-74
2022/03/01 04:21:29;;;;;;;11.52;8.27;;;-1.80;99.90;;;;;;5012237;28;20030;-73
2022/03/01 04:23:54;;;;;;;10.35;8.35;;;-1.80;99.90;;;;;;5004324;28;20081;-74
2022/03/01 04:26:20;;;;;;;11.30;8.77;;;-1.80;99.90;;;;;;5014739;28;20121;-74
2022/03/01 04:28:45;;;;;;;10.35;8.30;;;-1.80;99.90;;;;;;4997095;28;20053;-74
2022/03/01 04:31:11;;;;;;;11.35;8.50;;;-1.80;99.90;;;;;;5000870;28;20413;-73
2022/03/01 04:33:37;;;;;;;12.20;9.68;;;-1.80;99.90;;;;;;5014642;28;20593;-71
2022/03/01 04:36:03;;;;;;;12.93;8.65;;;-1.90;99.90;;;;;;5014525;28;20101;-71
2022/03/01 04:38:29;;;;;;;12.10;8.93;;;-1.80;99.90;;;;;;5014468;28;20033;-71
2022/03/01 04:40:56;;;;;;;11.40;8.57;;;-1.90;99.90;;;;;;5001168;28;20041;-72
2022/03/01 04:43:22;;;;;;;12.48;9.68;;;-1.90;99.90;;;;;;5014350;28;20022;-71
2022/03/01 04:45:48;;;;;;;12.80;9.25;;;-1.90;99.90;;;;;;5014250;28;20022;-70
2022/03/01 04:48:14;;;;;;;11.45;7.97;;;-1.80;99.90;;;;;;5004606;28;20031;-70
2022/03/01 04:50:40;;;;;;;10.85;9.02;;;-1.90;99.90;;;;;;4994236;28;20492;-71
2022/03/01 04:53:05;;;;;;;11.13;9.18;;;-1.90;99.90;;;;;;4994428;28;20026;-71
2022/03/01 04:55:32;;;;;;;11.73;9.30;;;-1.90;99.90;;;;;;4997287;28;20030;-70
2022/03/01 04:57:57;;;;;;;12.73;9.05;;;-1.90;99.90;;;;;;5014202;28;20049;-71
2022/03/01 05:00:23;;;;;;;10.40;9.18;;;-1.90;99.90;;;;;;5013032;28;20031;-72
2022/03/01 05:02:49;;;;;;;10.95;8.68;;;-1.90;99.90;;;;;;5013836;28;20499;-73
2022/03/01 05:05:15;;;;;;;12.65;9.35;;;-1.90;99.90;;;;;;5013606;28;20024;-73
2022/03/01 05:07:42;;;;;;;9.98;8.80;;;-1.90;99.90;;;;;;5003914;28;20027;-73
2022/03/01 05:10:10;;;;;;;11.00;8.85;;;-1.90;99.90;;;;;;4992862;28;20110;-74
2022/03/01 05:12:56;;;;;;;12.57;9.13;;;-1.90;99.90;;;;;;5035964;23;20485;-71
2022/03/01 05:15:22;;;;;;;;;;;-1.90;99.90;;;;;;4987797;28;20037;-73
2022/03/01 05:17:48;;;;;;;10.98;8.82;;;-1.90;99.90;;;;;;4990290;28;19912;-72
2022/03/01 05:20:16;;;;;;;10.60;9.18;;;-2.00;99.90;;;;;;4993928;28;20061;-72
2022/03/01 05:22:42;;;;;;;12.68;9.13;;;-1.90;99.90;;;;;;4979891;28;20053;-71
2022/03/01 05:25:10;;;;;;;12.20;8.00;;;-1.90;99.90;;;;;;4999765;28;20026;-71
2022/03/01 05:27:42;;;;;;;13.02;8.27;;;-1.90;99.90;;;;;;5000633;28;20073;-71
2022/03/01 05:30:10;;;;;;;13.25;9.95;;;-2.00;99.90;;;;;;4981896;28;20093;-71
2022/03/01 05:32:40;;;;;;;11.48;9.80;;;-2.00;99.90;;;;;;4980863;28;20081;-71
2022/03/01 05:35:10;;;;;;;11.75;9.27;;;-2.00;99.90;;;;;;4986201;28;20022;-71
2022/03/01 05:37:37;;;;;;;12.02;9.48;;;-2.00;99.90;;;;;;4991514;28;20026;-72
2022/03/01 05:40:04;;;;;;;11.57;8.88;;;-2.00;99.90;;;;;;4982239;28;20141;-71
2022/03/01 05:42:30;;;;;;;11.07;9.15;;;-2.00;99.90;;;;;;4980395;28;20403;-71
2022/03/01 05:44:55;;;;;;;10.50;9.18;;;-2.00;99.90;;;;;;4984790;28;20054;-71
2022/03/01 05:47:21;;;;;;;11.77;9.18;;;-2.00;99.90;;;;;;4989737;28;20547;-71
2022/03/01 05:49:47;;;;;;;13.00;9.35;;;-2.10;99.90;;;;;;4984691;28;20035;-71
2022/03/01 05:52:12;;;;;;;10.18;8.85;;;-2.10;99.90;;;;;;4989446;28;20384;-71
2022/03/01 05:54:38;;;;;;;11.70;9.45;;;-2.10;99.90;;;;;;4984551;28;20030;-71
2022/03/01 05:57:03;;;;;;;12.23;9.27;;;-2.10;99.90;;;;;;5002634;28;20026;-70
2022/03/01 05:59:29;;;;;;;13.20;9.75;;;-2.10;99.90;;;;;;4984580;28;20035;-71
2022/03/01 06:01:54;;;;;;;10.82;9.68;;;-2.10;99.90;;;;;;4986921;28;20033;-70
2022/03/01 06:04:20;;;;;;;11.27;9.80;;;-2.20;99.90;;;;;;4985772;28;20439;-70
2022/03/01 06:06:45;;;;;;;14.23;10.05;;;-2.20;99.90;;;;;;5021617;28;20034;-71
2022/03/01 06:09:11;;;;;;;14.07;9.70;;;-2.20;99.90;;;;;;5000715;28;20026;-71
2022/03/01 06:11:37;;;;;;;11.68;9.38;;;-2.20;99.90;;;;;;5010231;28;20177;-70
2022/03/01 06:14:03;;;;;;;15.63;9.93;;;-2.20;99.90;;;;;;4982655;28;20555;-70
2022/03/01 06:16:28;;;;;;;14.05;10.27;;;-2.20;99.90;;;;;;4980196;28;20058;-70
2022/03/01 06:18:53;;;;;;;13.05;10.65;;;-2.20;99.90;;;;;;4984700;28;20026;-71
2022/03/01 06:21:20;;;;;;;12.48;10.25;;;-2.20;99.90;;;;;;4988317;28;20472;-71
2022/03/01 06:23:46;;;;;;;13.52;9.77;;;-2.20;99.90;;;;;;4983270;28;20026;-71
2022/03/01 06:26:12;;;;;;;11.77;9.93;;;-2.20;99.90;;;;;;4992301;28;20030;-71
2022/03/01 06:28:38;;;;;;;11.88;9.65;;;-2.20;99.90;;;;;;4981833;28;20026;-70
2022/03/01 06:31:03;;;;;;;13.85;9.52;;;-2.10;99.90;;;;;;4979771;28;20396;-70
2022/03/01 06:33:29;;;;;;;11.55;9.10;;;-2.10;99.90;;;;;;4985065;28;20030;-70
2022/03/01 06:35:54;;;;;;;11.45;9.23;;;-2.20;99.90;;;;;;4986308;28;20033;-71
2022/03/01 06:38:20;;;;;;;10.32;9.18;;;-2.10;99.90;;;;;;4981001;28;20550;-70
2022/03/01 06:40:45;;;;;;;12.95;9.32;;;-2.10;99.90;;;;;;4991756;28;20427;-70
2022/03/01 06:43:11;;;;;;;11.60;9.40;;;-2.00;99.90;;;;;;4980922;28;20026;-70
2022/03/01 06:45:37;;;;;;;11.65;9.43;;;-2.00;99.90;;;;;;5005656;28;20442;-70
2022/03/01 06:48:02;;;;;;;12.30;9.38;;;-1.90;99.90;;;;;;4986802;28;20468;-70
2022/03/01 06:50:28;;;;;;;11.15;8.68;;;-1.90;99.90;;;;;;4993323;28;20031;-72
2022/03/01 06:52:54;;;;;;;12.43;9.65;;;-1.90;99.90;;;;;;5004767;28;20599;-70
2022/03/01 06:55:21;;;;;;;11.88;10.02;;;-1.80;99.90;;;;;;4979631;28;20022;-71
2022/03/01 06:57:47;;;;;;;9.95;8.95;;;-1.80;99.90;;;;;;4984614;28;20034;-71
2022/03/01 07:00:14;;;;;;;11.75;8.95;;;-1.70;99.90;;;;;;5000348;28;20115;-72
2022/03/01 07:02:40;;;;;;;11.70;9.73;;;-1.70;99.90;;;;;;4983217;28;20473;-70
2022/03/01 07:05:09;;;;;;;10.80;8.48;;;-1.70;99.90;;;;;;4987299;28;20065;-71
2022/03/01 07:07:35;;;;;;;11.68;8.73;;;-1.60;99.90;;;;;;4984208;28;20037;-71
2022/03/01 07:10:01;;;;;;;12.48;8.75;;;-1.60;99.90;;;;;;4988238;28;20022;-71
2022/03/01 07:12:26;;;;;;;11.75;9.20;;;-1.50;99.90;;;;;;4994970;28;20058;-71
2022/03/01 07:14:55;;;;;;;11.68;8.82;;;-1.40;99.90;;;;;;4986094;28;20022;-71
2022/03/01 07:17:21;;;;;;;10.23;8.23;;;-1.40;99.90;;;;;;4980057;28;20026;-71
2022/03/01 07:19:47;;;;;;;12.05;9.02;;;-1.30;99.90;;;;;;4980974;28;20049;-71
2022/03/01 07:22:12;;;;;;;10.65;8.50;;;-1.30;99.90;;;;;;5002944;28;20023;-70
2022/03/01 07:24:38;;;;;;;12.80;9.13;;;-1.20;99.90;;;;;;5002249;28;20365;-71
2022/03/01 07:27:03;;;;;;;11.80;8.88;;;-1.20;99.90;;;;;;4993710;28;20122;-73
2022/03/01 07:29:33;;;;;;;13.65;9.88;;;-1.10;99.90;;;;;;4994162;28;20080;-73
2022/03/01 07:31:59;;;;;;;13.70;9.93;;;-1.10;99.90;;;;;;5001367;28;20031;-72
2022/03/01 07:34:25;;;;;;;13.20;9.75;;;-1.00;99.90;;;;;;4980156;28;20031;-72
2022/03/01 07:36:50;;;;;;;12.23;9.48;;;-1.00;99.90;;;;;;4999625;28;20022;-70
2022/03/01 07:39:17;;;;;;;10.88;9.10;;;-1.00;99.90;;;;;;4996337;28;20033;-70
2022/03/01 07:41:43;;;;;;;12.15;9.27;;;-0.90;99.90;;;;;;4995276;28;20050;-70
2022/03/01 07:44:08;;;;;;;10.70;8.20;;;-0.80;99.90;;;;;;4992741;28;20468;-72
2022/03/01 07:46:34;;;;;;;9.75;8.13;;;-0.70;99.90;;;;;;4995964;28;20369;-73
2022/03/01 07:48:59;;;;;;;10.45;7.80;;;-0.70;99.90;;;;;;4982868;28;20034;-70
2022/03/01 07:51:25;;;;;;;11.45;8.95;;;-0.60;99.90;;;;;;4994324;28;20093;-70
2022/03/01 07:53:51;;;;;;;11.32;8.73;;;-0.60;99.90;;;;;;4995747;28;20093;-72
2022/03/01 07:56:20;;;;;;;9.93;8.15;;;-0.50;99.90;;;;;;4995992;28;20101;-73
2022/03/01 07:58:46;;;;;;;10.75;8.13;;;-0.50;99.90;;;;;;4994410;28;20555;-73
2022/03/01 08:01:12;;;;;;;13.38;8.73;;;-0.30;99.90;;;;;;4995561;28;20038;-73
2022/03/01 08:03:37;;;;;;;10.30;8.20;;;-0.30;99.90;;;;;;4982528;28;20026;-73
2022/03/01 08:06:03;;;;;;;11.05;8.10;;;-0.20;99.90;;;;;;4995704;28;20081;-73
2022/03/01 08:08:29;;;;;;;11.63;8.57;;;-0.20;99.90;;;;;;4995464;28;20504;-73
2022/03/01 08:10:54;;;;;;;10.60;8.77;;;-0.20;99.90;;;;;;4995469;28;20030;-73
2022/03/01 08:13:20;;;;;;;11.02;8.10;;;-0.10;99.90;;;;;;4995524;28;20113;-71
2022/03/01 08:15:45;;;;;;;10.40;8.32;;;0.00;99.90;;;;;;5004826;28;20065;-71
2022/03/01 08:18:11;;;;;;;8.82;7.78;;;0.00;99.90;;;;;;4999062;28;20030;-70
2022/03/01 08:20:37;;;;;;;10.43;8.43;;;0.10;99.90;;;;;;5004478;28;20030;-73
2022/03/01 08:23:02;;;;;;;10.07;7.78;;;0.20;99.90;;;;;;4983666;28;20026;-73
2022/03/01 08:25:28;;;;;;;11.88;8.45;;;0.20;99.90;;;;;;4996526;28;20052;-71
2022/03/01 08:27:56;;;;;;;10.95;8.15;;;0.20;99.90;;;;;;4999148;28;20045;-72
2022/03/01 08:30:24;;;;;;;8.88;7.70;;;0.30;99.90;;;;;;4995367;28;20472;-72
2022/03/01 08:32:50;;;;;;;10.20;7.68;;;0.40;99.90;;;;;;4998996;28;20026;-72
2022/03/01 08:35:15;;;;;;;9.05;7.30;;;0.40;99.90;;;;;;4997764;28;20030;-72
2022/03/01 08:37:41;;;;;;;11.48;7.60;;;0.40;99.90;;;;;;5002121;28;20400;-71
2022/03/01 08:40:07;;;;;;;11.38;7.40;;;0.50;99.90;;;;;;5006437;28;20088;-72
2022/03/01 08:42:33;;;;;;;10.80;9.05;;;0.50;99.90;;;;;;5012982;28;20022;-72
2022/03/01 08:44:58;;;;;;;9.82;7.40;;;0.70;99.90;;;;;;5014633;28;20032;-72
2022/03/01 08:47:26;;;;;;;10.70;8.27;;;0.80;99.90;;;;;;5013102;28;20084;-72
2022/03/01 08:49:52;;;;;;;10.30;7.30;;;0.70;99.90;;;;;;4999781;28;20018;-72
2022/03/01 08:52:17;;;;;;;12.63;7.55;;;0.80;99.90;;;;;;5001972;28;20018;-71
2022/03/01 08:54:43;;;;;;;10.10;8.15;;;0.90;99.90;;;;;;5007727;28;20033;-72
2022/03/01 08:57:09;;;;;;;11.50;8.35;;;1.00;99.90;;;;;;4995600;28;20022;-72
2022/03/01 08:59:34;;;;;;;8.45;7.53;;;1.00;99.90;;;;;;5003989;28;20014;-73
2022/03/01 09:02:00;;;;;;;10.27;7.80;;;1.10;99.90;;;;;;5013716;28;20053;-72
2022/03/01 09:04:25;;;;;;;8.40;7.00;;;1.10;99.90;;;;;;5013969;28;20084;-71
2022/03/01 09:06:51;;;;;;;10.85;7.32;;;1.10;99.90;;;;;;5007015;28;20029;-73
2022/03/01 09:09:17;;;;;;;9.70;7.18;;;1.20;99.90;;;;;;5000923;28;20019;-73
2022/03/01 09:11:42;;;;;;;9.15;6.95;;;1.30;99.90;;;;;;5001911;28;20030;-73
2022/03/01 09:14:08;;;;;;;9.40;7.55;;;1.30;99.90;;;;;;5012712;28;20084;-73
2022/03/01 09:16:38;;;;;;;9.13;6.90;;;1.40;99.90;;;;;;5014009;28;20033;-73
2022/03/01 09:19:04;;;;;;;8.30;7.35;;;1.50;99.90;;;;;;5013704;28;20033;-73
2022/03/01 09:21:30;;;;;;;8.70;6.55;;;1.50;99.90;;;;;;5012161;28;20109;-73
2022/03/01 09:23:55;;;;;;;12.23;7.13;;;1.50;99.90;;;;;;5013643;28;20133;-73
2022/03/01 09:26:21;;;;;;;9.32;7.43;;;1.70;99.90;;;;;;5006034;28;20498;-73
2022/03/01 09:28:46;;;;;;;8.98;7.13;;;1.80;99.90;;;;;;5012485;28;20029;-72
2022/03/01 09:31:12;;;;;;;8.95;6.60;;;1.80;99.90;;;;;;5011953;28;20018;-73
2022/03/01 09:33:42;;;;;;;8.88;6.75;;;1.70;99.90;;;;;;5008167;28;20056;-73
2022/03/01 09:36:09;;;;;;;8.55;6.68;;;1.70;99.90;;;;;;5012135;28;20025;-73
2022/03/01 09:38:35;;;;;;;9.43;6.68;;;2.00;99.90;;;;;;5013722;28;20022;-73
2022/03/01 09:41:01;;;;;;;8.55;7.00;;;1.70;99.90;;;;;;5010560;28;20049;-73
2022/03/01 09:43:26;;;;;;;10.85;7.38;;;1.80;99.90;;;;;;5012371;28;20103;-73
2022/03/01 09:45:52;;;;;;;8.60;6.60;;;1.90;99.90;;;;;;5011441;28;20484;-73
2022/03/01 09:48:18;;;;;;;7.38;6.18;;;1.90;99.90;;;;;;5002807;28;20026;-73
2022/03/01 09:50:46;;;;;;;8.40;6.32;;;1.90;99.90;;;;;;5013288;28;20014;-73
2022/03/01 09:53:12;;;;;;;9.43;7.13;;;2.00;99.90;;;;;;5028448;28;20037;-74
2022/03/01 09:55:38;;;;;;;6.93;5.93;;;2.10;99.90;;;;;;5010673;28;20022;-74
2022/03/01 09:58:04;;;;;;;8.95;6.68;;;2.20;99.90;;;;;;5010026;28;20088;-73
2022/03/01 10:00:29;;;;;;;7.82;6.50;;;2.20;99.90;;;;;;5007902;28;20563;-72
2022/03/01 10:02:57;;;;;;;9.80;6.93;;;2.10;99.90;;;;;;5003228;28;20030;-73
2022/03/01 10:05:40;;;;;;;7.47;6.38;;;2.20;99.90;;;;;;5001786;28;20460;-74
2022/03/01 10:08:08;;;;;;;8.57;6.60;;;2.20;99.90;;;;;;5004061;28;20045;-71
2022/03/01 10:10:53;;;;;;;9.00;6.55;;;2.20;99.90;;;;;;5001503;28;20014;-74
2022/03/01 10:13:30;;;;;;;8.45;6.40;;;2.40;99.90;;;;;;5002652;28;20025;-73
2022/03/01 10:16:14;;;;;;;10.02;6.43;;;2.30;99.90;;;;;;5002347;28;20044;-73
2022/03/01 10:18:49;;;;;;;9.20;7.00;;;2.50;99.90;;;;;;5001985;28;20022;-73
2022/03/01 10:21:16;;;;;;;8.00;6.55;;;2.50;99.90;;;;;;5010737;28;20030;-73
2022/03/01 10:23:51;;;;;;;7.85;6.45;;;2.50;99.90;;;;;;4998965;28;20593;-74
2022/03/01 10:26:19;;;;;;;9.07;6.87;;;2.60;99.90;;;;;;4997627;28;20033;-74
2022/03/01 10:28:47;;;;;;;7.93;6.00;;;2.60;99.90;;;;;;5011188;28;20033;-74
2022/03/01 10:31:18;;;;;;;7.80;5.97;;;2.60;99.90;;;;;;5010667;28;20030;-72
2022/03/01 10:34:02;;;;;;;7.95;6.28;;;2.80;99.90;;;;;;5008163;28;20556;-72
2022/03/01 10:36:40;;;;;;;7.93;6.43;;;2.80;99.90;;;;;;5012247;28;20022;-72
2022/03/01 10:39:15;;;;;;;8.38;6.30;;;2.90;99.90;;;;;;5027380;28;20053;-73
2022/03/01 10:41:43;;;;;;;10.65;7.25;;;2.90;99.90;;;;;;5011662;28;20029;-72
2022/03/01 10:44:15;;;;;;;6.95;6.25;;;3.10;99.90;;;;;;5012052;28;20069;-72
2022/03/01 10:46:43;;;;;;;7.45;6.47;;;3.10;99.90;;;;;;5010929;28;20029;-73
2022/03/01 10:49:15;;;;;;;7.28;6.35;;;3.10;99.90;;;;;;5011976;28;20100;-72
2022/03/01 10:51:49;;;;;;;9.07;6.57;;;3.20;99.90;;;;;;5011729;28;20018;-72
2022/03/01 10:54:43;;;;;;;8.02;6.22;;;3.30;99.90;;;;;;5011717;28;20487;-72
2022/03/01 10:57:30;;;;;;;8.05;6.47;;;3.40;99.90;;;;;;5007149;28;20026;-73
2022/03/01 10:59:56;;;;;;;8.32;6.15;;;3.40;99.70;;;;;;5010467;28;20022;-73
2022/03/01 11:02:21;;;;;;;9.82;6.25;;;3.50;99.70;;;;;;5011592;28;20072;-73
2022/03/01 11:04:48;;;;;;;9.82;6.35;;;3.50;99.50;;;;;;5006471;28;20024;-71
2022/03/01 11:07:14;;;;;;;7.65;6.35;;;3.60;99.50;;;;;;5011034;28;20018;-72
2022/03/01 11:09:40;;;;;;;8.25;6.38;;;3.60;99.40;;;;;;5011409;28;20014;-72
2022/03/01 11:12:08;;;;;;;7.43;6.40;;;3.60;99.20;;;;;;5022601;22;20064;-76
2022/03/01 11:15:11;;;;;;;10.88;6.45;;;3.70;99.90;;;;;;4964471;28;20038;-75
2022/03/01 11:17:59;;;;;;;7.72;6.32;;;3.80;99.90;;;;;;4975287;28;20440;-76
2022/03/01 11:20:32;;;;;;;8.57;6.30;;;3.70;99.20;;;;;;4969769;28;20031;-75
2022/03/01 11:23:02;;;;;;;7.18;5.90;;;3.80;99.40;;;;;;4978789;28;20121;-75
2022/03/01 11:25:34;;;;;;;10.57;6.25;;;3.80;99.30;;;;;;4974194;28;20392;-76
2022/03/01 11:28:05;;;;;;;6.45;5.80;;;4.00;99.50;;;;;;4974566;28;20026;-75
2022/03/01 11:30:33;;;;;;;8.23;5.82;;;4.10;98.80;;;;;;4975322;28;20066;-75
2022/03/01 11:32:59;;;;;;;6.55;5.68;;;4.20;98.20;;;;;;4980428;28;20019;-75
2022/03/01 11:35:28;;;;;;;8.07;5.80;;;4.00;97.50;;;;;;4977572;28;20033;-75
2022/03/01 11:38:08;;;;;;;7.43;5.35;;;4.40;97.30;;;;;;4979862;28;20030;-75
2022/03/01 11:40:45;;;;;;;11.13;5.88;;;4.40;97.40;;;;;;4977894;28;20022;-76
2022/03/01 11:43:20;;;;;;;9.25;5.43;;;4.40;98.10;;;;;;4972254;28;20046;-75
2022/03/01 11:45:57;;;;;;;6.43;5.22;;;4.20;97.30;;;;;;4971063;28;20058;-75
2022/03/01 11:48:25;;;;;;;7.10;5.20;;;4.40;97.40;;;;;;4969320;28;20065;-75
2022/03/01 11:51:06;;;;;;;7.22;5.35;;;4.40;96.60;;;;;;4982233;28;20078;-75
2022/03/01 11:53:40;;;;;;;8.50;5.60;;;4.40;97.20;;;;;;4979163;28;20069;-75
2022/03/01 11:56:07;;;;;;;7.82;6.05;;;4.90;96.30;;;;;;4978965;28;20101;-75
2022/03/01 11:58:34;;;;;;;9.10;5.43;;;4.90;96.60;;;;;;4980471;28;20026;-76
2022/03/01 12:01:04;;;;;;;7.03;4.80;;;5.00;95.20;;;;;;4979941;28;20485;-76
2022/03/01 12:03:30;;;;;;;7.68;4.82;;;5.20;94.70;;;;;;4985353;28;20031;-76
2022/03/01 12:05:56;;;;;;;8.55;5.25;;;;;;;;;;4980981;28;20276;-76
2022/03/01 12:08:22;;;;;;;6.63;5.10;;;6.50;95.00;;;;;;4977145;28;20030;-76
2022/03/01 12:11:06;;;;;;;8.23;5.03;;;6.60;94.80;;;;;;4970711;28;20384;-76
2022/03/01 12:13:38;;;;;;;8.05;5.40;;;7.20;94.10;;;;;;4962055;28;20542;-76
2022/03/01 12:16:04;;;;;;;5.88;5.03;;;7.50;92.50;;;;;;4980584;28;20151;-74
2022/03/01 12:18:34;;;;;;;7.10;5.03;;;8.10;90.90;;;;;;4977122;28;20547;-75
2022/03/01 12:21:03;;;;;;;6.60;5.13;;;8.30;90.80;;;;;;4979958;28;20433;-75
2022/03/01 12:23:31;;;;;;;6.15;4.68;;;8.70;85.20;;;;;;4966814;28;20030;-75
2022/03/01 12:26:03;;;;;;;7.25;4.93;;;8.90;85.40;;;;;;4971919;28;20031;-75
2022/03/01 12:28:37;;;;;;;7.85;4.93;;;8.80;84.70;;;;;;4961870;28;20031;-75
2022/03/01 12:31:08;;;;;;;7.03;4.97;;;10.00;84.50;;;;;;4974415;28;20019;-75
2022/03/01 12:33:34;;;;;;;5.95;4.43;;;10.40;79.60;;;;;;4963459;28;20026;-75
2022/03/01 12:36:03;;;;;;;6.07;4.15;;;9.60;77.50;;;;;;4962590;28;20019;-75
2022/03/01 12:38:30;;;;;;;6.95;4.40;;;8.40;79.40;;;;;;4984435;28;20019;-75
2022/03/01 12:41:07;;;;;;;6.55;4.70;;;7.80;80.60;;;;;;4979364;28;20093;-74